createdAt,value
2018-08-06T00:01:07.683Z,3.00
2018-08-06T00:03:48.787Z,2.77
2018-08-06T00:06:30.999Z,3.10
2018-08-06T00:09:11.855Z,3.20
2018-08-06T00:11:53.690Z,3.30
2018-08-06T00:14:34.558Z,3.13
2018-08-06T00:17:15.468Z,3.23
2018-08-06T00:19:55.960Z,3.37
2018-08-06T00:22:36.456Z,2.90
2018-08-06T00:25:17.841Z,3.13
2018-08-06T00:27:58.725Z,3.77
2018-08-06T00:30:39.290Z,3.87
2018-08-06T00:33:20.522Z,3.40
2018-08-06T00:36:01.712Z,3.23
2018-08-06T00:38:42.869Z,2.87
2018-08-06T00:41:23.394Z,2.90
2018-08-06T00:44:05.172Z,2.70
2018-08-06T00:46:45.975Z,2.57
2018-08-06T00:49:27.254Z,2.67
2018-08-06T00:52:07.747Z,2.60
2018-08-06T00:54:48.569Z,2.77
2018-08-06T00:57:29.118Z,2.80
2018-08-06T01:00:13.166Z,2.37
2018-08-06T01:02:54.006Z,2.30
2018-08-06T01:05:35.249Z,2.70
2018-08-06T01:08:16.310Z,2.67
2018-08-06T01:10:57.091Z,2.23
2018-08-06T01:13:37.553Z,2.53
2018-08-06T01:16:18.970Z,2.60
2018-08-06T01:18:59.701Z,2.23
2018-08-06T01:21:41.006Z,2.53
2018-08-06T01:24:21.501Z,2.63
2018-08-06T01:27:02.017Z,2.70
2018-08-06T01:29:42.400Z,3.03
2018-08-06T01:32:23.138Z,2.30
2018-08-06T01:35:04.665Z,2.40
2018-08-06T01:37:45.532Z,2.93
2018-08-06T01:40:25.933Z,2.30
2018-08-06T01:43:06.815Z,2.40
2018-08-06T01:45:47.388Z,2.53
2018-08-06T01:48:28.486Z,3.37
2018-08-06T01:51:09.103Z,3.00
2018-08-06T01:53:49.776Z,2.93
2018-08-06T01:56:30.858Z,2.87
2018-08-06T01:59:11.273Z,2.57
2018-08-06T02:01:52.352Z,2.97
2018-08-06T02:04:33.165Z,3.13
2018-08-06T02:07:13.705Z,2.80
2018-08-06T02:09:54.765Z,3.43
2018-08-06T02:12:35.526Z,2.87
2018-08-06T02:15:16.052Z,3.13
2018-08-06T02:17:56.369Z,2.80
2018-08-06T02:20:37.309Z,3.30
2018-08-06T02:23:18.466Z,3.10
2018-08-06T02:25:59.520Z,3.30
2018-08-06T02:28:39.943Z,3.63
2018-08-06T02:31:20.876Z,2.90
2018-08-06T02:34:01.339Z,3.10
2018-08-06T02:36:42.114Z,3.37
2018-08-06T02:39:22.441Z,2.80
2018-08-06T02:42:03.244Z,3.13
2018-08-06T02:44:43.761Z,2.90
2018-08-06T02:47:24.496Z,3.50
2018-08-06T02:50:05.741Z,3.17
2018-08-06T02:52:46.533Z,3.30
2018-08-06T02:55:27.037Z,3.10
2018-08-06T02:58:07.597Z,2.87
2018-08-06T03:00:48.078Z,3.10
2018-08-06T03:03:28.609Z,2.80
2018-08-06T03:06:08.984Z,2.93
2018-08-06T03:08:49.517Z,3.40
2018-08-06T03:11:30.426Z,3.10
2018-08-06T03:14:10.832Z,3.50
2018-08-06T03:16:52.119Z,3.40
2018-08-06T03:19:32.848Z,3.17
2018-08-06T03:22:14.005Z,3.13
2018-08-06T03:24:54.587Z,3.10
2018-08-06T03:27:35.580Z,3.10
2018-08-06T03:30:17.589Z,2.90
2018-08-06T03:32:58.637Z,3.67
2018-08-06T03:35:39.846Z,3.50
2018-08-06T03:38:20.589Z,3.20
2018-08-06T03:41:01.150Z,3.20
2018-08-06T03:43:42.016Z,3.10
2018-08-06T03:46:22.776Z,3.13
2018-08-06T03:49:03.216Z,2.80
2018-08-06T03:51:43.599Z,3.33
2018-08-06T03:54:23.969Z,3.50
2018-08-06T03:57:04.340Z,3.17
2018-08-06T03:59:45.315Z,3.30
2018-08-06T04:02:26.191Z,3.23
2018-08-06T04:05:10.296Z,2.90
2018-08-06T04:07:51.104Z,3.27
2018-08-06T04:10:32.155Z,3.50
2018-08-06T04:13:13.014Z,3.37
2018-08-06T04:15:53.884Z,3.20
2018-08-06T04:18:34.652Z,3.00
2018-08-06T04:21:15.709Z,3.10
2018-08-06T04:23:56.509Z,3.47
2018-08-06T04:26:38.484Z,3.07
2018-08-06T04:29:18.979Z,3.20
2018-08-06T04:32:00.139Z,3.10
2018-08-06T04:34:40.652Z,3.00
2018-08-06T04:37:21.233Z,3.10
2018-08-06T04:40:01.803Z,2.83
2018-08-06T04:42:43.411Z,3.27
2018-08-06T04:45:24.872Z,3.20
2018-08-06T04:48:05.461Z,3.67
2018-08-06T04:50:46.318Z,3.20
2018-08-06T04:53:27.082Z,3.57
2018-08-06T04:56:07.604Z,3.47
2018-08-06T04:58:48.677Z,3.53
2018-08-06T05:01:29.392Z,3.30
2018-08-06T05:04:10.305Z,2.80
2018-08-06T05:06:51.918Z,3.10
2018-08-06T05:09:39.193Z,3.40
2018-08-06T05:12:20.133Z,3.03
2018-08-06T05:15:01.316Z,3.33
2018-08-06T05:17:42.902Z,3.13
2018-08-06T05:20:24.458Z,3.27
2018-08-06T05:23:04.860Z,2.97
2018-08-06T05:25:45.416Z,2.80
2018-08-06T05:28:26.403Z,2.80
2018-08-06T05:31:07.007Z,3.00
2018-08-06T05:33:48.062Z,2.97
2018-08-06T05:36:28.498Z,3.10
2018-08-06T05:39:09.693Z,2.80
2018-08-06T05:41:50.232Z,2.67
2018-08-06T05:44:31.040Z,2.80
2018-08-06T05:47:12.563Z,2.90
2018-08-06T05:49:53.645Z,2.67
2018-08-06T05:52:34.851Z,3.00
2018-08-06T05:55:15.989Z,2.43
2018-08-06T05:57:56.664Z,2.90
2018-08-06T06:00:37.453Z,2.80
2018-08-06T06:03:18.314Z,3.40
2018-08-06T06:05:59.030Z,3.03
2018-08-06T06:08:40.282Z,2.77
2018-08-06T06:11:20.674Z,3.10
2018-08-06T06:14:01.470Z,2.67
2018-08-06T06:16:43.004Z,2.83
2018-08-06T06:19:23.370Z,2.97
2018-08-06T06:22:04.149Z,3.07
2018-08-06T06:24:44.751Z,3.33
2018-08-06T06:27:25.246Z,3.27
2018-08-06T06:30:07.965Z,3.20
2018-08-06T06:32:49.118Z,2.50
2018-08-06T06:35:29.667Z,3.00
2018-08-06T06:38:10.216Z,2.70
2018-08-06T06:40:50.727Z,3.27
2018-08-06T06:43:31.677Z,3.23
2018-08-06T06:46:12.536Z,3.60
2018-08-06T06:48:53.542Z,3.10
2018-08-06T06:51:34.212Z,2.83
2018-08-06T06:54:14.871Z,2.97
2018-08-06T06:56:56.085Z,3.30
2018-08-06T06:59:36.630Z,2.87
2018-08-06T07:02:17.400Z,3.13
2018-08-06T07:04:58.545Z,3.10
2018-08-06T07:07:40.998Z,2.73
2018-08-06T07:10:21.777Z,3.30
2018-08-06T07:13:01.975Z,2.83
2018-08-06T07:15:42.867Z,2.60
2018-08-06T07:18:24.631Z,3.40
2018-08-06T07:21:05.892Z,2.77
2018-08-06T07:23:46.956Z,2.70
2018-08-06T07:26:28.324Z,2.63
2018-08-06T07:29:08.904Z,2.80
2018-08-06T07:31:49.940Z,2.83
2018-08-06T07:34:31.125Z,3.33
2018-08-06T07:37:12.552Z,3.23
2018-08-06T07:39:53.461Z,2.90
2018-08-06T07:42:34.140Z,3.13
2018-08-06T07:45:20.046Z,2.53
2018-08-06T07:48:00.822Z,2.87
2018-08-06T07:50:41.533Z,2.53
2018-08-06T07:53:22.062Z,2.80
2018-08-06T07:56:03.017Z,2.50
2018-08-06T07:58:43.425Z,2.33
2018-08-06T08:01:25.319Z,2.23
2018-08-06T08:04:06.306Z,2.13
2018-08-06T08:06:47.112Z,2.23
2018-08-06T08:09:27.883Z,2.23
2018-08-06T08:12:08.804Z,2.30
2018-08-06T08:14:49.585Z,1.97
2018-08-06T08:17:30.387Z,1.80
2018-08-06T08:20:13.354Z,1.90
2018-08-06T08:22:58.683Z,1.73
2018-08-06T08:25:39.582Z,2.00
2018-08-06T08:28:20.090Z,1.70
2018-08-06T08:31:00.533Z,1.77
2018-08-06T08:33:42.684Z,1.30
2018-08-06T08:36:23.235Z,1.70
2018-08-06T08:39:05.918Z,1.00
2018-08-06T08:41:46.911Z,1.57
2018-08-06T08:44:27.405Z,1.07
2018-08-06T08:47:07.832Z,1.30
2018-08-06T08:49:48.526Z,1.40
2018-08-06T08:52:29.073Z,1.50
2018-08-06T08:55:10.754Z,1.23
2018-08-06T08:57:51.265Z,1.17
2018-08-06T09:00:32.086Z,1.57
2018-08-06T09:03:13.623Z,1.20
2018-08-06T09:05:54.837Z,1.30
2018-08-06T09:08:36.018Z,1.60
2018-08-06T09:11:16.453Z,1.40
2018-08-06T09:13:57.338Z,1.20
2018-08-06T09:16:38.897Z,1.47
2018-08-06T09:19:19.703Z,1.10
2018-08-06T09:22:00.200Z,1.30
2018-08-06T09:24:41.720Z,1.60
2018-08-06T09:27:22.178Z,1.40
2018-08-06T09:30:02.573Z,1.20
2018-08-06T09:32:44.915Z,1.30
2018-08-06T09:35:25.407Z,1.43
2018-08-06T09:38:06.347Z,1.13
2018-08-06T09:40:47.289Z,1.57
2018-08-06T09:43:28.650Z,1.03
2018-08-06T09:46:09.601Z,1.20
2018-08-06T09:48:50.417Z,1.83
2018-08-06T09:51:32.136Z,1.50
2018-08-06T09:54:13.959Z,1.30
2018-08-06T09:56:54.863Z,1.20
2018-08-06T09:59:35.754Z,1.50
2018-08-06T10:02:16.960Z,1.53
2018-08-06T10:04:57.498Z,1.63
2018-08-06T10:07:38.563Z,1.63
2018-08-06T10:10:19.163Z,1.60
2018-08-06T10:13:00.104Z,2.07
2018-08-06T10:15:40.409Z,1.70
2018-08-06T10:18:21.407Z,1.40
2018-08-06T10:21:02.149Z,1.60
2018-08-06T10:23:43.137Z,1.70
2018-08-06T10:26:23.628Z,2.30
2018-08-06T10:29:04.215Z,1.70
2018-08-06T10:31:44.754Z,1.60
2018-08-06T10:34:25.563Z,1.67
2018-08-06T10:37:06.541Z,1.40
2018-08-06T10:39:47.746Z,1.60
2018-08-06T10:42:28.342Z,2.03
2018-08-06T10:45:13.243Z,1.43
2018-08-06T10:47:55.018Z,2.00
2018-08-06T10:50:35.314Z,1.80
2018-08-06T10:53:16.581Z,1.97
2018-08-06T10:55:57.306Z,1.70
2018-08-06T10:58:38.074Z,1.90
2018-08-06T11:01:18.879Z,1.80
2018-08-06T11:03:59.315Z,1.80
2018-08-06T11:06:40.353Z,1.90
2018-08-06T11:09:20.988Z,1.90
2018-08-06T11:12:01.798Z,1.97
2018-08-06T11:14:42.794Z,1.60
2018-08-06T11:17:30.318Z,1.90
2018-08-06T11:20:11.984Z,1.80
2018-08-06T11:22:52.792Z,1.93
2018-08-06T11:25:33.313Z,1.93
2018-08-06T11:28:14.223Z,1.70
2018-08-06T11:30:54.798Z,1.50
2018-08-06T11:33:35.921Z,1.60
2018-08-06T11:36:16.330Z,1.90
2018-08-06T11:38:56.850Z,1.60
2018-08-06T11:41:38.031Z,1.93
2018-08-06T11:44:19.208Z,1.80
2018-08-06T11:47:00.057Z,1.90
2018-08-06T11:49:40.907Z,1.87
2018-08-06T11:52:21.680Z,2.20
2018-08-06T11:55:03.025Z,1.70
2018-08-06T11:57:43.773Z,2.03
2018-08-06T12:00:26.361Z,1.90
2018-08-06T12:03:07.871Z,1.73
2018-08-06T12:05:48.253Z,1.70
2018-08-06T12:08:28.791Z,2.03
2018-08-06T12:11:09.805Z,1.60
2018-08-06T12:13:50.602Z,2.07
2018-08-06T12:16:31.601Z,1.70
2018-08-06T12:19:12.598Z,1.60
2018-08-06T12:21:53.203Z,2.00
2018-08-06T12:24:33.664Z,1.80
2018-08-06T12:27:14.362Z,1.80
2018-08-06T12:29:55.084Z,1.70
2018-08-06T12:32:36.131Z,1.93
2018-08-06T12:35:17.410Z,1.73
2018-08-06T12:37:58.189Z,1.70
2018-08-06T12:40:39.025Z,1.87
2018-08-06T12:43:19.469Z,2.30
2018-08-06T12:46:00.597Z,1.87
2018-08-06T12:48:41.042Z,1.77
2018-08-06T12:51:22.410Z,1.90
2018-08-06T12:54:03.454Z,1.50
2018-08-06T12:56:44.051Z,2.10
2018-08-06T12:59:25.171Z,1.73
2018-08-06T13:02:06.025Z,1.50
2018-08-06T13:04:46.778Z,2.03
2018-08-06T13:07:27.749Z,1.80
2018-08-06T13:10:08.554Z,1.53
2018-08-06T13:12:49.941Z,1.50
2018-08-06T13:15:30.436Z,1.80
2018-08-06T13:18:11.306Z,1.47
2018-08-06T13:20:51.922Z,2.00
2018-08-06T13:23:32.707Z,2.00
2018-08-06T13:26:13.529Z,1.67
2018-08-06T13:28:54.376Z,1.60
2018-08-06T13:31:35.080Z,1.90
2018-08-06T13:34:15.951Z,1.90
2018-08-06T13:36:57.561Z,1.60
2018-08-06T13:39:38.640Z,1.70
2018-08-06T13:42:19.522Z,2.20
2018-08-06T13:45:00.769Z,1.70
2018-08-06T13:47:41.735Z,1.90
2018-08-06T13:50:22.282Z,1.63
2018-08-06T13:53:02.715Z,1.80
2018-08-06T13:55:44.328Z,1.93
2018-08-06T13:58:25.120Z,2.00
2018-08-06T14:01:05.941Z,1.90
2018-08-06T14:03:46.707Z,1.87
2018-08-06T14:06:27.354Z,1.70
2018-08-06T14:09:10.099Z,1.90
2018-08-06T14:11:51.259Z,1.53
2018-08-06T14:14:32.118Z,1.63
2018-08-06T14:17:12.537Z,1.60
2018-08-06T14:19:53.103Z,2.07
2018-08-06T14:22:35.482Z,1.70
2018-08-06T14:25:15.987Z,1.63
2018-08-06T14:27:56.959Z,1.40
2018-08-06T14:30:38.604Z,1.67
2018-08-06T14:33:19.197Z,1.60
2018-08-06T14:36:00.349Z,1.80
2018-08-06T14:38:41.693Z,1.40
2018-08-06T14:41:22.521Z,1.50
2018-08-06T14:44:03.979Z,1.70
2018-08-06T14:46:45.437Z,1.30
2018-08-06T14:49:26.352Z,2.00
2018-08-06T14:52:07.261Z,1.67
2018-08-06T14:54:48.009Z,1.83
2018-08-06T14:57:33.185Z,1.90
2018-08-06T15:00:23.470Z,1.70
2018-08-06T15:03:05.109Z,1.30
2018-08-06T15:05:46.375Z,1.70
2018-08-06T15:08:26.963Z,1.43
2018-08-06T15:11:08.144Z,1.60
2018-08-06T15:13:50.180Z,1.97
2018-08-06T15:16:31.605Z,1.70
2018-08-06T15:19:12.368Z,1.60
2018-08-06T15:21:53.529Z,1.60
2018-08-06T15:24:34.014Z,1.70
2018-08-06T15:27:15.022Z,1.90
2018-08-06T15:29:55.814Z,1.50
2018-08-06T15:32:36.736Z,2.00
2018-08-06T15:35:17.901Z,2.03
2018-08-06T15:37:59.177Z,2.13
2018-08-06T15:40:39.832Z,1.97
2018-08-06T15:43:20.972Z,1.63
2018-08-06T15:46:01.462Z,1.70
2018-08-06T15:48:42.014Z,1.80
2018-08-06T15:51:22.439Z,1.67
2018-08-06T15:54:04.382Z,1.60
2018-08-06T15:56:44.931Z,1.40
2018-08-06T15:59:25.386Z,1.77
2018-08-06T16:02:06.805Z,1.60
2018-08-06T16:04:48.126Z,1.63
2018-08-06T16:07:28.886Z,1.70
2018-08-06T16:10:10.996Z,1.87
2018-08-06T16:12:52.588Z,1.50
2018-08-06T16:15:33.113Z,1.57
2018-08-06T16:18:13.669Z,1.50
2018-08-06T16:20:54.679Z,1.43
2018-08-06T16:23:36.127Z,1.63
2018-08-06T16:26:16.817Z,1.80
2018-08-06T16:28:58.353Z,1.43
2018-08-06T16:31:39.065Z,1.50
2018-08-06T16:34:19.872Z,1.70
2018-08-06T16:37:00.942Z,1.77
2018-08-06T16:39:41.627Z,4.97
2018-08-06T16:42:22.165Z,2.07
2018-08-06T16:45:03.048Z,2.13
2018-08-06T16:47:43.810Z,2.20
2018-08-06T16:50:24.306Z,1.83
2018-08-06T16:53:04.899Z,1.80
2018-08-06T16:55:45.612Z,1.63
2018-08-06T16:58:26.133Z,1.20
2018-08-06T17:01:06.858Z,1.50
2018-08-06T17:03:47.768Z,1.40
2018-08-06T17:06:28.886Z,1.60
2018-08-06T17:09:09.957Z,1.60
2018-08-06T17:11:50.591Z,1.60
2018-08-06T17:14:31.777Z,1.80
2018-08-06T17:17:12.335Z,1.33
2018-08-06T17:19:53.486Z,1.40
2018-08-06T17:22:34.218Z,1.50
2018-08-06T17:25:15.048Z,1.50
2018-08-06T17:27:55.656Z,1.43
2018-08-06T17:30:36.400Z,1.63
2018-08-06T17:33:17.227Z,1.60
2018-08-06T17:35:58.034Z,1.60
2018-08-06T17:38:38.833Z,1.60
2018-08-06T17:41:19.976Z,1.63
2018-08-06T17:44:00.881Z,1.73
2018-08-06T17:46:41.716Z,2.53
2018-08-06T17:49:23.545Z,2.10
2018-08-06T17:52:04.204Z,1.40
2018-08-06T17:54:45.293Z,1.80
2018-08-06T17:57:26.472Z,1.57
2018-08-06T18:00:08.458Z,1.30
2018-08-06T18:02:49.145Z,1.33
2018-08-06T18:05:30.140Z,1.53
2018-08-06T18:08:10.875Z,1.60
2018-08-06T18:10:51.535Z,1.30
2018-08-06T18:13:32.282Z,1.43
2018-08-06T18:16:13.183Z,1.67
2018-08-06T18:18:53.705Z,1.30
2018-08-06T18:21:34.843Z,1.37
2018-08-06T18:24:16.091Z,1.53
2018-08-06T18:26:56.733Z,1.30
2018-08-06T18:29:37.510Z,1.37
2018-08-06T18:32:18.575Z,1.90
2018-08-06T18:34:59.565Z,1.40
2018-08-06T18:37:40.393Z,1.80
2018-08-06T18:40:21.938Z,1.60
2018-08-06T18:43:02.389Z,2.37
2018-08-06T18:45:43.171Z,1.80
2018-08-06T18:48:24.798Z,1.87
2018-08-06T18:51:05.859Z,1.87
2018-08-06T18:53:46.678Z,2.03
2018-08-06T18:56:27.340Z,1.80
2018-08-06T18:59:07.820Z,2.03
2018-08-06T19:01:48.615Z,2.23
2018-08-06T19:04:29.051Z,2.43
2018-08-06T19:07:10.642Z,2.33
2018-08-06T19:09:51.111Z,2.10
2018-08-06T19:12:37.483Z,1.53
2018-08-06T19:15:18.129Z,1.80
2018-08-06T19:18:04.380Z,1.53
2018-08-06T19:20:45.439Z,1.70
2018-08-06T19:23:26.194Z,1.63
2018-08-06T19:26:06.740Z,2.00
2018-08-06T19:28:47.528Z,1.93
2018-08-06T19:31:28.585Z,1.57
2018-08-06T19:34:09.338Z,1.90
2018-08-06T19:36:55.381Z,2.10
2018-08-06T19:39:36.596Z,2.03
2018-08-06T19:42:18.090Z,2.50
2018-08-06T19:44:59.136Z,2.30
2018-08-06T19:47:40.197Z,2.80
2018-08-06T19:50:26.126Z,2.00
2018-08-06T19:53:07.069Z,2.07
2018-08-06T19:55:53.161Z,2.27
2018-08-06T19:58:33.684Z,2.70
2018-08-06T20:01:14.221Z,2.50
2018-08-06T20:03:55.184Z,2.80
2018-08-06T20:06:36.153Z,2.90
2018-08-06T20:09:17.568Z,2.77
2018-08-06T20:11:58.038Z,3.10
2018-08-06T20:14:38.657Z,3.30
2018-08-06T20:17:19.381Z,3.47
2018-08-06T20:20:00.083Z,2.70
2018-08-06T20:22:40.810Z,3.00
2018-08-06T20:25:22.340Z,3.60
2018-08-06T20:28:02.949Z,3.70
2018-08-06T20:30:43.325Z,3.73
2018-08-06T20:33:24.081Z,3.43
2018-08-06T20:36:04.571Z,3.43
2018-08-06T20:38:45.584Z,3.20
2018-08-06T20:41:26.149Z,3.10
2018-08-06T20:44:08.284Z,3.47
2018-08-06T20:46:49.278Z,3.30
2018-08-06T20:49:30.134Z,3.43
2018-08-06T20:52:10.529Z,3.40
2018-08-06T20:54:51.281Z,2.57
2018-08-06T20:57:31.758Z,3.00
2018-08-06T21:00:17.919Z,3.40
2018-08-06T21:02:58.772Z,2.70
2018-08-06T21:05:39.406Z,2.50
2018-08-06T21:08:19.769Z,2.80
2018-08-06T21:11:00.237Z,2.97
2018-08-06T21:13:40.780Z,2.60
2018-08-06T21:16:22.093Z,2.70
2018-08-06T21:19:02.676Z,2.20
2018-08-06T21:21:43.069Z,2.60
2018-08-06T21:24:24.122Z,2.67
2018-08-06T21:27:04.796Z,2.70
2018-08-06T21:29:45.629Z,2.77
2018-08-06T21:32:26.125Z,2.43
2018-08-06T21:35:07.401Z,3.23
2018-08-06T21:37:49.604Z,2.93
2018-08-06T21:40:30.450Z,2.80
2018-08-06T21:43:10.989Z,2.93
2018-08-06T21:45:52.185Z,2.77
2018-08-06T21:48:33.153Z,3.50
2018-08-06T21:51:13.863Z,3.27
2018-08-06T21:53:54.997Z,3.23
2018-08-06T21:56:35.792Z,3.40
2018-08-06T21:59:16.486Z,3.87
2018-08-06T22:01:57.078Z,3.10
2018-08-06T22:04:37.868Z,3.07
2018-08-06T22:07:18.352Z,3.07
2018-08-06T22:09:59.155Z,3.87
2018-08-06T22:12:40.105Z,3.23
2018-08-06T22:15:20.796Z,3.43
2018-08-06T22:18:01.289Z,3.23
2018-08-06T22:20:41.907Z,2.83
2018-08-06T22:23:22.299Z,2.97
2018-08-06T22:26:03.106Z,3.37
2018-08-06T22:28:43.891Z,3.10
2018-08-06T22:31:24.797Z,3.10
2018-08-06T22:34:05.192Z,3.07
2018-08-06T22:36:45.977Z,3.47
2018-08-06T22:39:26.392Z,2.60
2018-08-06T22:42:07.537Z,3.33
2018-08-06T22:44:47.918Z,2.90
2018-08-06T22:47:28.762Z,3.33
2018-08-06T22:50:11.603Z,3.47
2018-08-06T22:52:52.552Z,3.70
2018-08-06T22:55:50.142Z,4.00
2018-08-06T22:58:30.592Z,4.10
2018-08-06T23:01:12.011Z,3.70
2018-08-06T23:03:53.110Z,3.60
2018-08-06T23:06:33.642Z,3.50
2018-08-06T23:09:14.471Z,3.83
2018-08-06T23:11:55.262Z,3.57
2018-08-06T23:14:36.381Z,3.30
2018-08-06T23:17:17.239Z,3.47
2018-08-06T23:19:58.246Z,3.33
2018-08-06T23:22:39.887Z,3.40
2018-08-06T23:25:23.980Z,3.50
2018-08-06T23:28:05.021Z,2.97
2018-08-06T23:30:45.596Z,2.87
2018-08-06T23:33:25.966Z,3.10
2018-08-06T23:36:07.389Z,3.10
2018-08-06T23:38:47.812Z,2.87
2018-08-06T23:41:28.508Z,3.40
2018-08-06T23:44:08.978Z,3.20
2018-08-06T23:46:49.405Z,3.60
2018-08-06T23:49:29.887Z,3.63
2018-08-06T23:52:10.765Z,3.50
2018-08-06T23:54:53.002Z,3.53
2018-08-06T23:57:33.276Z,3.47
